createdAt,value
2019-02-03T00:00:59.521Z,3.50
2019-02-03T00:03:29.629Z,3.50
2019-02-03T00:06:00.118Z,3.50
2019-02-03T00:08:30.314Z,3.50
2019-02-03T00:11:00.464Z,3.50
2019-02-03T00:13:31.294Z,3.50
2019-02-03T00:16:01.569Z,3.40
2019-02-03T00:18:31.769Z,3.50
2019-02-03T00:21:01.906Z,3.50
2019-02-03T00:23:33.702Z,3.40
2019-02-03T00:26:04.124Z,3.40
2019-02-03T00:28:34.331Z,3.40
2019-02-03T00:31:04.556Z,3.40
2019-02-03T00:33:34.707Z,3.40
2019-02-03T00:36:05.312Z,3.30
2019-02-03T00:38:35.943Z,3.30
2019-02-03T00:41:06.128Z,3.30
2019-02-03T00:43:36.342Z,3.30
2019-02-03T00:46:06.729Z,3.20
2019-02-03T00:48:36.862Z,3.20
2019-02-03T00:51:09.978Z,3.20
2019-02-03T00:53:40.221Z,3.20
2019-02-03T00:56:10.541Z,3.20
2019-02-03T00:58:41.215Z,3.20
2019-02-03T01:01:11.354Z,3.20
2019-02-03T01:03:41.760Z,3.20
2019-02-03T01:06:11.996Z,3.20
2019-02-03T01:08:42.397Z,3.20
2019-02-03T01:11:12.576Z,3.20
2019-02-03T01:13:42.730Z,3.20
2019-02-03T01:16:13.265Z,3.10
2019-02-03T01:18:43.475Z,3.10
2019-02-03T01:21:13.635Z,3.10
2019-02-03T01:23:43.774Z,3.10
2019-02-03T01:26:13.948Z,3.00
2019-02-03T01:28:44.599Z,3.00
2019-02-03T01:31:14.797Z,3.00
2019-02-03T01:33:44.969Z,3.00
2019-02-03T01:36:15.134Z,2.90
2019-02-03T01:38:45.838Z,2.90
2019-02-03T01:41:16.060Z,3.00
2019-02-03T01:44:05.620Z,3.00
2019-02-03T01:46:35.817Z,2.90
2019-02-03T01:49:06.267Z,2.90
2019-02-03T01:51:36.731Z,3.00
2019-02-03T01:54:06.880Z,2.90
2019-02-03T01:56:37.068Z,2.90
2019-02-03T01:59:07.421Z,2.90
2019-02-03T02:01:37.575Z,2.90
2019-02-03T02:04:08.083Z,2.80
2019-02-03T02:06:38.320Z,2.80
2019-02-03T02:09:09.143Z,2.80
2019-02-03T02:11:39.317Z,2.80
2019-02-03T02:14:09.477Z,2.80
2019-02-03T02:16:39.911Z,2.80
2019-02-03T02:19:10.053Z,2.80
2019-02-03T02:21:40.400Z,2.80
2019-02-03T02:24:10.849Z,2.80
2019-02-03T02:26:41.009Z,2.80
2019-02-03T02:29:11.157Z,2.80
2019-02-03T02:31:41.365Z,2.80
2019-02-03T02:34:12.008Z,2.70
2019-02-03T02:36:42.111Z,2.70
2019-02-03T02:39:12.284Z,2.60
2019-02-03T02:41:42.457Z,2.70
2019-02-03T02:44:12.633Z,2.70
2019-02-03T02:46:42.765Z,2.70
2019-02-03T02:49:12.952Z,2.60
2019-02-03T02:51:43.099Z,2.60
2019-02-03T02:54:13.283Z,2.60
2019-02-03T02:56:43.819Z,2.60
2019-02-03T02:59:13.966Z,2.60
2019-02-03T03:01:44.167Z,2.60
2019-02-03T03:04:14.319Z,2.60
2019-02-03T03:06:44.470Z,2.60
2019-02-03T03:09:14.810Z,2.60
2019-02-03T03:11:44.959Z,2.60
2019-02-03T03:14:15.363Z,2.60
2019-02-03T03:16:45.555Z,2.50
2019-02-03T03:19:15.695Z,2.50
2019-02-03T03:21:46.124Z,2.50
2019-02-03T03:24:16.293Z,2.40
2019-02-03T03:26:46.477Z,2.40
2019-02-03T03:29:16.658Z,2.40
2019-02-03T03:31:46.837Z,2.40
2019-02-03T03:34:17.386Z,2.40
2019-02-03T03:36:47.565Z,2.40
2019-02-03T03:39:17.725Z,2.40
2019-02-03T03:41:48.018Z,2.40
2019-02-03T03:44:18.193Z,2.50
2019-02-03T03:46:48.324Z,2.50
2019-02-03T03:49:18.486Z,2.50
2019-02-03T03:51:48.645Z,2.40
2019-02-03T03:54:19.481Z,2.40
2019-02-03T03:56:49.679Z,2.40
2019-02-03T03:59:19.887Z,2.40
2019-02-03T04:01:50.119Z,2.40
2019-02-03T04:04:20.274Z,2.40
2019-02-03T04:06:50.635Z,2.40
2019-02-03T04:09:20.809Z,2.40
2019-02-03T04:11:51.148Z,2.40
2019-02-03T04:14:21.490Z,2.40
2019-02-03T04:16:51.658Z,2.40
2019-02-03T04:19:21.891Z,2.40
2019-02-03T04:21:52.057Z,2.50
2019-02-03T04:24:22.319Z,2.40
2019-02-03T04:26:52.945Z,2.40
2019-02-03T04:29:23.076Z,2.40
2019-02-03T04:31:53.301Z,2.40
2019-02-03T04:34:23.668Z,2.40
2019-02-03T04:36:53.796Z,2.50
2019-02-03T04:39:24.414Z,2.50
2019-02-03T04:41:54.614Z,2.50
2019-02-03T04:44:24.827Z,2.50
2019-02-03T04:46:54.947Z,2.50
2019-02-03T04:49:25.203Z,2.50
2019-02-03T04:51:55.627Z,2.40
2019-02-03T04:54:25.816Z,2.40
2019-02-03T04:56:55.980Z,2.50
2019-02-03T04:59:27.116Z,2.50
2019-02-03T05:01:57.275Z,2.50
2019-02-03T05:04:27.422Z,2.40
2019-02-03T05:06:57.590Z,2.40
2019-02-03T05:09:27.730Z,2.40
2019-02-03T05:11:57.912Z,2.40
2019-02-03T05:14:28.216Z,2.40
2019-02-03T05:16:58.395Z,2.30
2019-02-03T05:19:28.578Z,2.30
2019-02-03T05:21:58.731Z,2.30
2019-02-03T05:24:28.919Z,2.30
2019-02-03T05:26:59.271Z,2.20
2019-02-03T05:29:29.677Z,2.20
2019-02-03T05:31:59.900Z,2.20
2019-02-03T05:34:30.073Z,2.30
2019-02-03T05:37:00.293Z,2.30
2019-02-03T05:39:30.795Z,2.20
2019-02-03T05:42:01.013Z,2.30
2019-02-03T05:44:31.462Z,2.20
2019-02-03T05:47:01.643Z,2.20
2019-02-03T05:49:31.779Z,2.20
2019-02-03T05:52:02.002Z,2.30
2019-02-03T05:54:32.267Z,2.20
2019-02-03T05:57:02.721Z,2.20
2019-02-03T05:59:32.881Z,2.20
2019-02-03T06:02:03.034Z,2.20
2019-02-03T06:04:33.201Z,2.20
2019-02-03T06:07:03.556Z,2.10
2019-02-03T06:09:36.730Z,2.10
2019-02-03T06:12:06.021Z,2.10
2019-02-03T06:14:36.184Z,2.10
2019-02-03T06:17:06.456Z,2.00
2019-02-03T06:19:36.632Z,2.10
2019-02-03T06:22:07.197Z,2.00
2019-02-03T06:24:37.389Z,2.00
2019-02-03T06:27:07.541Z,2.00
2019-02-03T06:29:37.773Z,2.00
2019-02-03T06:32:07.921Z,2.10
2019-02-03T06:34:38.149Z,2.10
2019-02-03T06:37:08.398Z,2.10
2019-02-03T06:39:48.246Z,2.10
2019-02-03T06:42:10.434Z,2.10
2019-02-03T06:44:40.644Z,2.10
2019-02-03T06:47:18.578Z,2.10
2019-02-03T06:49:48.751Z,2.10
2019-02-03T06:52:19.683Z,2.10
2019-02-03T06:54:49.856Z,2.10
2019-02-03T06:57:20.012Z,2.10
2019-02-03T06:59:51.407Z,2.00
2019-02-03T07:02:21.633Z,2.00
2019-02-03T07:04:51.771Z,2.00
2019-02-03T07:07:21.990Z,1.90
2019-02-03T07:10:00.334Z,1.90
2019-02-03T07:12:23.987Z,1.90
2019-02-03T07:14:54.441Z,1.80
2019-02-03T07:17:24.604Z,1.80
2019-02-03T07:19:54.759Z,1.80
2019-02-03T07:22:24.922Z,1.80
2019-02-03T07:24:55.404Z,1.80
2019-02-03T07:27:25.546Z,1.90
2019-02-03T07:29:55.706Z,2.00
2019-02-03T07:32:25.879Z,1.90
2019-02-03T07:34:56.129Z,1.90
2019-02-03T07:37:26.578Z,1.90
2019-02-03T07:39:56.756Z,1.90
2019-02-03T07:42:26.967Z,1.90
2019-02-03T07:44:57.116Z,1.90
2019-02-03T07:47:27.326Z,1.80
2019-02-03T07:49:57.480Z,1.90
2019-02-03T07:52:27.650Z,1.90
2019-02-03T07:54:57.825Z,1.90
2019-02-03T07:57:27.979Z,1.90
2019-02-03T07:59:58.258Z,2.00
2019-02-03T08:02:28.444Z,2.10
2019-02-03T08:04:58.686Z,2.10
2019-02-03T08:07:28.842Z,2.30
2019-02-03T08:09:59.017Z,2.30
2019-02-03T08:12:29.164Z,2.30
2019-02-03T08:14:59.328Z,2.30
2019-02-03T08:17:29.865Z,2.30
2019-02-03T08:20:00.034Z,2.40
2019-02-03T08:22:30.181Z,2.40
2019-02-03T08:25:00.778Z,2.50
2019-02-03T08:27:31.035Z,2.50
2019-02-03T08:30:01.196Z,2.50
2019-02-03T08:32:31.349Z,2.50
2019-02-03T08:35:01.618Z,2.50
2019-02-03T08:37:31.760Z,2.50
2019-02-03T08:40:01.920Z,2.70
2019-02-03T08:42:35.037Z,2.70
2019-02-03T08:45:05.799Z,2.80
2019-02-03T08:47:35.975Z,2.70
2019-02-03T08:50:10.787Z,2.70
2019-02-03T08:52:40.949Z,2.60
2019-02-03T08:55:11.815Z,2.70
2019-02-03T08:57:42.819Z,2.70
2019-02-03T09:00:31.938Z,2.70
2019-02-03T09:03:02.492Z,2.70
2019-02-03T09:05:33.116Z,2.70
2019-02-03T09:08:03.354Z,2.70
2019-02-03T09:10:33.716Z,2.80
2019-02-03T09:13:03.898Z,2.90
2019-02-03T09:15:34.064Z,2.90
2019-02-03T09:18:06.171Z,3.00
2019-02-03T09:20:36.887Z,3.00
2019-02-03T09:23:07.140Z,3.10
2019-02-03T09:25:37.304Z,3.10
2019-02-03T09:28:07.626Z,3.00
2019-02-03T09:30:39.841Z,3.10
2019-02-03T09:33:10.014Z,3.20
2019-02-03T09:35:40.250Z,3.20
2019-02-03T09:38:10.395Z,3.30
2019-02-03T09:40:40.636Z,3.30
2019-02-03T09:43:10.771Z,3.30
2019-02-03T09:45:40.934Z,3.30
2019-02-03T09:48:11.153Z,3.30
2019-02-03T09:50:41.318Z,3.30
2019-02-03T09:53:11.713Z,3.30
2019-02-03T09:55:41.914Z,3.30
2019-02-03T09:58:12.064Z,3.30
2019-02-03T10:00:42.315Z,3.30
2019-02-03T10:03:13.764Z,3.40
2019-02-03T10:05:43.924Z,3.50
2019-02-03T10:08:16.051Z,3.60
2019-02-03T10:10:46.206Z,3.70
2019-02-03T10:13:16.365Z,3.60
2019-02-03T10:15:46.582Z,3.40
2019-02-03T10:18:16.805Z,3.30
2019-02-03T10:20:46.962Z,3.20
2019-02-03T10:23:17.379Z,3.20
2019-02-03T10:25:47.550Z,3.40
2019-02-03T10:28:17.712Z,3.50
2019-02-03T10:30:47.947Z,3.50
2019-02-03T10:33:18.132Z,3.50
2019-02-03T10:35:48.640Z,3.50
2019-02-03T10:38:18.791Z,3.60
2019-02-03T10:40:49.133Z,3.80
2019-02-03T10:43:19.384Z,3.70
2019-02-03T10:45:49.592Z,3.80
2019-02-03T10:48:19.761Z,3.80
2019-02-03T10:50:49.987Z,3.90
2019-02-03T10:53:20.145Z,3.90
2019-02-03T10:55:50.297Z,3.80
2019-02-03T10:58:20.529Z,4.00
2019-02-03T11:00:50.695Z,4.00
2019-02-03T11:03:21.243Z,3.80
2019-02-03T11:05:54.421Z,3.90
2019-02-03T11:08:24.575Z,3.80
2019-02-03T11:10:54.730Z,3.70
2019-02-03T11:13:24.901Z,3.70
2019-02-03T11:15:55.281Z,3.90
2019-02-03T11:18:25.424Z,4.00
2019-02-03T11:20:55.614Z,3.90
2019-02-03T11:23:25.775Z,3.80
2019-02-03T11:25:55.933Z,3.70
2019-02-03T11:28:26.126Z,3.80
2019-02-03T11:30:56.392Z,3.80
2019-02-03T11:33:26.548Z,3.80
2019-02-03T11:35:56.740Z,3.60
2019-02-03T11:38:26.903Z,3.60
2019-02-03T11:40:57.085Z,3.50
2019-02-03T11:43:27.234Z,3.60
2019-02-03T11:45:57.658Z,3.50
2019-02-03T11:48:27.854Z,3.50
2019-02-03T11:50:58.003Z,3.60
2019-02-03T11:53:29.193Z,3.70
2019-02-03T11:55:59.399Z,3.70
2019-02-03T11:58:29.536Z,3.60
2019-02-03T12:00:59.790Z,3.60
2019-02-03T12:03:29.940Z,3.60
2019-02-03T12:06:00.180Z,3.60
2019-02-03T12:08:30.366Z,3.70
2019-02-03T12:11:00.635Z,3.60
2019-02-03T12:13:30.813Z,3.50
2019-02-03T12:16:00.982Z,3.60
2019-02-03T12:18:31.125Z,3.80
2019-02-03T12:21:01.436Z,3.70
2019-02-03T12:23:31.618Z,3.60
2019-02-03T12:26:01.775Z,3.80
2019-02-03T12:28:31.928Z,3.70
2019-02-03T12:31:02.130Z,3.80
2019-02-03T12:33:32.455Z,3.80
2019-02-03T12:36:02.757Z,3.70
2019-02-03T12:38:32.897Z,3.80
2019-02-03T12:41:03.064Z,3.70
2019-02-03T12:43:33.535Z,3.70
2019-02-03T12:46:03.857Z,3.70
2019-02-03T12:48:34.030Z,3.70
2019-02-03T12:51:04.181Z,3.70
2019-02-03T12:53:34.577Z,3.70
2019-02-03T12:56:05.121Z,3.70
2019-02-03T12:58:35.252Z,3.80
2019-02-03T13:01:05.781Z,3.70
2019-02-03T13:03:35.938Z,3.70
2019-02-03T13:06:08.061Z,3.80
2019-02-03T13:08:38.063Z,3.70
2019-02-03T13:11:08.383Z,3.80
2019-02-03T13:13:38.554Z,3.90
2019-02-03T13:16:08.791Z,3.90
2019-02-03T13:18:39.119Z,3.80
2019-02-03T13:21:09.272Z,3.70
2019-02-03T13:23:45.077Z,3.70
2019-02-03T13:26:11.277Z,3.70
2019-02-03T13:28:41.440Z,3.70
2019-02-03T13:31:11.602Z,3.80
2019-02-03T13:33:43.310Z,3.80
2019-02-03T13:36:13.523Z,4.00
2019-02-03T13:38:43.704Z,4.00
2019-02-03T13:41:13.866Z,4.00
2019-02-03T13:43:44.368Z,4.00
2019-02-03T13:46:14.520Z,4.20
2019-02-03T13:48:44.657Z,4.10
2019-02-03T13:51:14.843Z,4.10
2019-02-03T13:53:44.978Z,4.10
2019-02-03T13:56:15.128Z,4.00
2019-02-03T13:58:45.261Z,4.00
2019-02-03T14:01:15.734Z,4.00
2019-02-03T14:03:45.952Z,4.00
2019-02-03T14:06:16.132Z,4.10
2019-02-03T14:08:46.278Z,4.10
2019-02-03T14:13:49.733Z,4.10
2019-02-03T14:16:19.907Z,4.10
2019-02-03T14:18:50.037Z,4.10
2019-02-03T14:21:20.342Z,4.10
2019-02-03T14:23:50.532Z,4.20
2019-02-03T14:26:20.678Z,4.10
2019-02-03T14:28:50.834Z,4.00
2019-02-03T14:31:20.956Z,4.00
2019-02-03T14:33:51.176Z,4.00
2019-02-03T14:36:21.331Z,4.00
2019-02-03T14:38:51.539Z,4.10
2019-02-03T14:41:21.873Z,4.10
2019-02-03T14:43:52.199Z,4.10
2019-02-03T14:46:22.409Z,4.20
2019-02-03T14:48:52.550Z,4.10
2019-02-03T14:51:22.706Z,4.10
2019-02-03T14:53:53.189Z,4.20
2019-02-03T14:56:23.489Z,4.10
2019-02-03T14:58:53.707Z,4.00
2019-02-03T15:01:23.910Z,4.00
2019-02-03T15:03:54.094Z,4.00
2019-02-03T15:06:24.388Z,4.00
2019-02-03T15:08:54.869Z,4.00
2019-02-03T15:11:25.039Z,4.00
2019-02-03T15:13:55.328Z,4.00
2019-02-03T15:16:25.489Z,3.90
2019-02-03T15:18:55.620Z,3.90
2019-02-03T15:21:26.340Z,4.00
2019-02-03T15:23:56.495Z,4.00
2019-02-03T15:26:26.728Z,3.90
2019-02-03T15:28:56.985Z,3.90
2019-02-03T15:31:27.286Z,3.90
2019-02-03T15:33:57.747Z,3.90
2019-02-03T15:36:27.904Z,3.90
2019-02-03T15:38:58.046Z,3.90
2019-02-03T15:41:28.201Z,3.90
2019-02-03T15:43:58.358Z,3.90
2019-02-03T15:46:28.654Z,3.80
2019-02-03T15:48:58.831Z,3.80
2019-02-03T15:51:29.006Z,3.80
2019-02-03T15:53:59.154Z,3.80
2019-02-03T15:56:29.329Z,3.80
2019-02-03T15:58:59.880Z,3.90
2019-02-03T16:01:30.170Z,3.80
2019-02-03T16:04:00.364Z,3.80
2019-02-03T16:06:30.517Z,3.80
2019-02-03T16:09:00.668Z,3.70
2019-02-03T16:11:30.813Z,3.80
2019-02-03T16:14:01.004Z,3.90
2019-02-03T16:16:31.137Z,3.80
2019-02-03T16:19:01.346Z,3.70
2019-02-03T16:21:31.918Z,3.70
2019-02-03T16:24:02.055Z,3.70
2019-02-03T16:26:32.266Z,3.60
2019-02-03T16:29:02.709Z,3.50
2019-02-03T16:31:32.839Z,3.50
2019-02-03T16:34:03.113Z,3.50
2019-02-03T16:36:33.349Z,3.40
2019-02-03T16:39:04.647Z,3.50
2019-02-03T16:41:35.262Z,3.50
2019-02-03T16:44:05.550Z,3.50
2019-02-03T16:46:36.855Z,3.50
2019-02-03T16:49:07.145Z,3.50
2019-02-03T16:51:37.321Z,3.40
2019-02-03T16:54:07.744Z,3.60
2019-02-03T16:56:38.088Z,3.60
2019-02-03T16:59:08.295Z,3.70
2019-02-03T17:01:38.407Z,3.70
2019-02-03T17:04:08.600Z,3.70
2019-02-03T17:06:38.950Z,3.70
2019-02-03T17:09:10.899Z,3.70
2019-02-03T17:11:41.145Z,3.60
2019-02-03T17:14:11.322Z,3.60
2019-02-03T17:16:41.915Z,3.60
2019-02-03T17:19:12.067Z,3.60
2019-02-03T17:21:42.286Z,3.60
2019-02-03T17:24:12.424Z,3.60
2019-02-03T17:26:42.664Z,3.60
2019-02-03T17:29:12.815Z,3.60
2019-02-03T17:31:43.394Z,3.60
2019-02-03T17:34:13.731Z,3.60
2019-02-03T17:36:43.910Z,3.70
2019-02-03T17:39:14.094Z,3.60
2019-02-03T17:41:44.272Z,3.50
2019-02-03T17:44:19.667Z,3.60
2019-02-03T17:46:46.649Z,3.60
2019-02-03T17:49:16.855Z,3.60
2019-02-03T17:51:47.004Z,3.60
2019-02-03T17:54:17.188Z,3.60
2019-02-03T17:56:47.413Z,3.60
2019-02-03T17:59:17.569Z,3.60
2019-02-03T18:01:47.703Z,3.50
2019-02-03T18:04:17.870Z,3.50
2019-02-03T18:06:48.023Z,3.50
2019-02-03T18:09:18.177Z,3.50
2019-02-03T18:11:48.484Z,3.40
2019-02-03T18:14:24.729Z,3.50
2019-02-03T18:16:50.497Z,3.40
2019-02-03T18:19:20.825Z,3.50
2019-02-03T18:21:50.961Z,3.40
2019-02-03T18:24:21.139Z,3.40
2019-02-03T18:26:51.321Z,3.40
2019-02-03T18:29:21.480Z,3.40
2019-02-03T18:31:51.847Z,3.40
2019-02-03T18:34:22.113Z,3.40
2019-02-03T18:36:52.460Z,3.30
2019-02-03T18:39:22.705Z,3.40
2019-02-03T18:41:52.819Z,3.40
2019-02-03T18:44:23.029Z,3.50
2019-02-03T18:46:53.351Z,3.60
2019-02-03T18:49:23.717Z,3.50
2019-02-03T18:51:53.895Z,3.50
2019-02-03T18:54:24.029Z,3.50
2019-02-03T18:56:54.195Z,3.50
2019-02-03T18:59:24.348Z,3.50
2019-02-03T19:01:54.507Z,3.50
2019-02-03T19:04:24.756Z,3.50
2019-02-03T19:06:55.079Z,3.50
2019-02-03T19:09:25.322Z,3.50
2019-02-03T19:11:55.489Z,3.50
2019-02-03T19:14:29.498Z,3.40
2019-02-03T19:16:59.728Z,3.50
2019-02-03T19:19:29.952Z,3.50
2019-02-03T19:22:00.135Z,3.30
2019-02-03T19:24:30.270Z,3.40
2019-02-03T19:27:00.458Z,3.50
2019-02-03T19:29:30.701Z,3.50
2019-02-03T19:32:00.844Z,3.30
2019-02-03T19:34:31.129Z,3.40
2019-02-03T19:37:05.578Z,3.40
2019-02-03T19:39:33.190Z,3.30
2019-02-03T19:42:03.438Z,3.30
2019-02-03T19:44:34.185Z,3.30
2019-02-03T19:47:04.428Z,3.30
2019-02-03T19:49:34.614Z,3.50
2019-02-03T19:52:04.850Z,3.50
2019-02-03T19:54:35.384Z,3.40
2019-02-03T19:57:05.615Z,3.50
2019-02-03T19:59:46.271Z,3.40
2019-02-03T20:02:07.775Z,3.50
2019-02-03T20:04:37.928Z,3.50
2019-02-03T20:07:08.408Z,3.50
2019-02-03T20:09:38.764Z,3.50
2019-02-03T20:12:08.930Z,3.60
2019-02-03T20:14:39.409Z,3.60
2019-02-03T20:17:09.975Z,3.70
2019-02-03T20:19:40.395Z,3.60
2019-02-03T20:22:10.656Z,3.60
2019-02-03T20:24:41.046Z,3.50
2019-02-03T20:27:11.199Z,3.60
2019-02-03T20:29:41.997Z,3.50
2019-02-03T20:32:12.244Z,3.40
2019-02-03T20:34:42.588Z,3.50
2019-02-03T20:37:12.841Z,3.60
2019-02-03T20:39:42.971Z,3.70
2019-02-03T20:42:13.262Z,3.70
2019-02-03T20:44:43.474Z,3.60
2019-02-03T20:47:14.045Z,3.60
2019-02-03T20:49:44.271Z,3.50
2019-02-03T20:52:14.458Z,3.60
2019-02-03T20:54:44.710Z,3.70
2019-02-03T20:57:14.872Z,3.50
2019-02-03T20:59:45.007Z,3.50
2019-02-03T21:02:15.276Z,3.60
2019-02-03T21:04:45.423Z,3.70
2019-02-03T21:07:15.556Z,3.70
2019-02-03T21:09:45.733Z,3.70
2019-02-03T21:12:15.867Z,3.60
2019-02-03T21:14:46.282Z,3.60
2019-02-03T21:17:16.446Z,3.50
2019-02-03T21:19:46.680Z,3.50
2019-02-03T21:22:16.864Z,3.50
2019-02-03T21:24:47.005Z,3.40
2019-02-03T21:27:17.699Z,3.40
2019-02-03T21:29:47.815Z,3.30
2019-02-03T21:32:18.156Z,3.20
2019-02-03T21:34:48.311Z,3.20
2019-02-03T21:37:18.615Z,3.00
2019-02-03T21:39:48.747Z,3.00
2019-02-03T21:42:18.964Z,3.00
2019-02-03T21:44:49.162Z,2.80
2019-02-03T21:47:19.405Z,2.70
2019-02-03T21:49:49.721Z,2.50
2019-02-03T21:52:19.981Z,2.40
2019-02-03T21:54:50.148Z,2.30
2019-02-03T21:57:20.378Z,2.30
2019-02-03T21:59:50.610Z,2.20
2019-02-03T22:02:20.914Z,2.10
2019-02-03T22:04:51.231Z,2.10
2019-02-03T22:07:21.638Z,2.00
2019-02-03T22:09:51.935Z,1.90
2019-02-03T22:12:22.253Z,1.90
2019-02-03T22:14:52.428Z,1.80
2019-02-03T22:17:22.741Z,1.80
2019-02-03T22:19:53.265Z,1.70
2019-02-03T22:22:23.419Z,1.70
2019-02-03T22:24:53.568Z,1.70
2019-02-03T22:27:23.758Z,1.60
2019-02-03T22:29:53.892Z,1.60
2019-02-03T22:32:24.321Z,1.60
2019-02-03T22:34:54.513Z,1.60
2019-02-03T22:37:24.856Z,1.70
2019-02-03T22:39:54.979Z,1.80
2019-02-03T22:42:25.123Z,1.80
2019-02-03T22:44:55.291Z,1.80
2019-02-03T22:47:25.462Z,1.80
2019-02-03T22:49:55.624Z,1.90
2019-02-03T22:52:25.747Z,1.90
2019-02-03T22:54:55.896Z,1.90
2019-02-03T22:57:26.034Z,1.90
2019-02-03T22:59:56.197Z,1.90
2019-02-03T23:02:26.642Z,1.80
2019-02-03T23:04:56.896Z,1.80
2019-02-03T23:07:27.119Z,1.90
2019-02-03T23:09:57.282Z,1.90
2019-02-03T23:12:27.696Z,1.90
2019-02-03T23:14:57.841Z,1.80
2019-02-03T23:17:28.003Z,1.80
2019-02-03T23:19:58.130Z,1.80
2019-02-03T23:22:28.289Z,1.80
2019-02-03T23:24:58.716Z,1.80
2019-02-03T23:27:28.908Z,1.80
2019-02-03T23:29:59.082Z,1.80
2019-02-03T23:32:29.244Z,1.80
2019-02-03T23:34:59.380Z,1.80
2019-02-03T23:37:29.584Z,1.80
2019-02-03T23:39:59.739Z,1.80
2019-02-03T23:42:29.882Z,1.80
2019-02-03T23:45:00.052Z,1.80
2019-02-03T23:47:30.557Z,1.80
2019-02-03T23:50:00.741Z,1.80
2019-02-03T23:52:31.094Z,1.80
2019-02-03T23:55:01.251Z,1.80
2019-02-03T23:57:31.419Z,1.80
